Time;durP1;ratioP1;P1;durP2;ratioP2;P2;SDS_P1;SDS_P2;PMS_P1;PMS_P2;Temp;Humidity;BMP_temperature;BMP_pressure;BME280_temperature;BME280_humidity;BME280_pressure;Samples;Min_cycle;Max_cycle;Signal;HPM_P1;HPM_P2
2022/10/12 00:00:30;;;;;;;;;;;;;;;13.18;100.00;99820.16;5026734;28;19916;-45
2022/10/12 00:02:55;;;;;;;;;;;;;;;13.10;100.00;99825.56;5059438;28;19960;-46
2022/10/12 00:05:20;;;;;;;;;;;;;;;13.00;100.00;99831.06;5060258;28;19927;-46
2022/10/12 00:07:45;;;;;;;;;;;;;;;13.00;100.00;99837.09;5060544;28;19924;-45
2022/10/12 00:10:10;;;;;;;;;;;;;;;13.14;100.00;99821.19;5059382;28;19920;-45
2022/10/12 00:12:36;;;;;;;;;;;;;;;13.06;100.00;99830.88;5060494;28;19920;-45
2022/10/12 00:15:01;;;;;;;;;;;;;;;12.80;100.00;99834.22;5060221;28;20388;-45
2022/10/12 00:17:26;;;;;;;;;;;;;;;12.86;100.00;99832.28;5060699;28;20392;-45
2022/10/12 00:19:51;;;;;;;;;;;;;;;13.10;100.00;99823.00;5058857;28;19917;-45
2022/10/12 00:22:17;;;;;;;;;;;;;;;13.21;100.00;99830.44;5041966;28;19920;-44
2022/10/12 00:24:42;;;;;;;;;;;;;;;13.04;100.00;99827.50;5059917;28;19920;-45
2022/10/12 00:27:07;;;;;;;;;;;;;;;13.04;100.00;99832.66;5026405;28;20019;-45
2022/10/12 00:29:32;;;;;;;;;;;;;;;12.98;100.00;99834.53;5057855;28;20423;-44
2022/10/12 00:31:58;;;;;;;;;;;;;;;12.83;100.00;99842.72;5060087;28;20392;-45
2022/10/12 00:34:23;;;;;;;;;;;;;;;12.73;100.00;99834.38;5060078;28;19921;-44
2022/10/12 00:36:48;;;;;;;;;;;;;;;12.93;100.00;99839.00;5060458;28;19920;-46
2022/10/12 00:39:14;;;;;;;;;;;;;;;12.89;100.00;99834.81;5058913;28;19963;-46
2022/10/12 00:41:41;;;;;;;;;;;;;;;13.08;100.00;99829.94;5041456;28;19999;-44
2022/10/12 00:44:25;;;;;;;;;;;;;;;12.80;100.00;99837.66;5041058;28;20572;-44
2022/10/12 00:46:50;;;;;;;;;;;;;;;12.83;100.00;99834.97;5059044;28;19920;-44
2022/10/12 00:49:17;;;;;;;;;;;;;;;12.94;100.00;99825.16;5041512;28;19921;-44
2022/10/12 00:51:42;;;;;;;;;;;;;;;12.83;100.00;99828.97;5041515;28;19922;-44
2022/10/12 00:54:09;;;;;;;;;;;;;;;12.97;100.00;99822.50;5041788;28;20026;-44
2022/10/12 00:56:34;;;;;;;;;;;;;;;12.91;100.00;99824.44;5042166;28;20363;-44
2022/10/12 00:59:01;;;;;;;;;;;;;;;12.80;100.00;99829.88;5041015;28;19999;-44
2022/10/12 01:01:27;;;;;;;;;;;;;;;12.82;100.00;99833.28;5040455;28;19942;-44
2022/10/12 01:03:52;;;;;;;;;;;;;;;13.02;100.00;99824.94;5041684;28;19920;-44
2022/10/12 01:06:17;;;;;;;;;;;;;;;12.82;100.00;99827.25;5059980;28;19974;-44
2022/10/12 01:08:42;;;;;;;;;;;;;;;12.92;100.00;99819.19;5059732;28;19924;-44
2022/10/12 01:11:08;;;;;;;;;;;;;;;12.90;100.00;99823.56;5059037;28;20744;-44
2022/10/12 01:13:33;;;;;;;;;;;;;;;12.92;100.00;99819.19;5059956;28;19962;-44
2022/10/12 01:16:01;;;;;;;;;;;;;;;12.91;100.00;99821.84;5059497;28;19971;-44
2022/10/12 01:18:48;;;;;;;;;;;;;;;12.91;100.00;99817.50;5041059;28;19917;-44
2022/10/12 01:21:20;;;;;;;;;;;;;;;12.85;100.00;99817.69;5041602;28;19921;-45
2022/10/12 01:23:51;;;;;;;;;;;;;;;12.86;100.00;99819.34;5058786;28;19924;-44
2022/10/12 01:26:28;;;;;;;;;;;;;;;12.88;100.00;99827.91;5059178;28;19981;-44
2022/10/12 01:29:02;;;;;;;;;;;;;;;12.70;100.00;99828.44;5056473;28;19920;-44
2022/10/12 01:31:30;;;;;;;;;;;;;;;12.56;100.00;99831.41;5058867;28;20584;-44
2022/10/12 01:33:59;;;;;;;;;;;;;;;12.43;100.00;99827.44;5058677;28;20019;-44
2022/10/12 01:36:31;;;;;;;;;;;;;;;12.13;100.00;99833.38;5058242;28;19951;-44
2022/10/12 01:39:09;;;;;;;;;;;;;;;12.10;100.00;99838.59;5062316;28;19924;-44
2022/10/12 01:41:38;;;;;;;;;;;;;;;12.27;100.00;99829.56;5062517;28;19920;-44
2022/10/12 01:44:04;;;;;;;;;;;;;;;12.31;100.00;99821.69;5044645;28;20289;-44
2022/10/12 01:46:29;;;;;;;;;;;;;;;12.38;100.00;99816.38;5062736;28;19920;-44
2022/10/12 01:48:55;;;;;;;;;;;;;;;12.32;100.00;99812.25;5061851;28;19920;-44
2022/10/12 01:51:22;;;;;;;;;;;;;;;12.27;100.00;99814.94;5044599;28;19920;-44
2022/10/12 01:53:57;;;;;;;;;;;;;;;12.46;100.00;99804.97;5044951;28;19924;-44
2022/10/12 01:56:26;;;;;;;;;;;;;;;12.50;100.00;99800.56;5062585;28;19979;-44
2022/10/12 01:59:00;;;;;;;;;;;;;;;11.69;100.00;99812.00;5044094;28;19920;-44
2022/10/12 02:01:41;;;;;;;;;;;;;;;12.10;100.00;99806.78;5044172;28;19944;-44
2022/10/12 02:04:10;;;;;;;;;;;;;;;12.27;100.00;99799.44;5044608;28;19917;-44
2022/10/12 02:06:45;;;;;;;;;;;;;;;12.41;100.00;99798.25;5062131;28;20047;-44
2022/10/12 02:09:13;;;;;;;;;;;;;;;12.42;100.00;99787.00;5044049;28;19971;-44
2022/10/12 02:11:38;;;;;;;;;;;;;;;12.37;100.00;99797.47;5043808;28;20007;-44
2022/10/12 02:14:08;;;;;;;;;;;;;;;12.05;100.00;99799.16;5062360;28;19996;-44
2022/10/12 02:16:38;;;;;;;;;;;;;;;12.19;100.00;99795.38;5044290;28;19920;-44
2022/10/12 02:19:03;;;;;;;;;;;;;;;12.02;100.00;99793.19;5043821;28;20580;-45
2022/10/12 02:21:29;;;;;;;;;;;;;;;12.12;100.00;99792.94;5061654;28;19921;-44
2022/10/12 02:23:55;;;;;;;;;;;;;;;12.22;100.00;99787.53;5061294;28;19926;-44
2022/10/12 02:26:20;;;;;;;;;;;;;;;11.95;100.00;99778.75;5044353;28;19928;-44
2022/10/12 02:28:45;;;;;;;;;;;;;;;11.95;100.00;99776.16;5061680;28;20345;-44
2022/10/12 02:31:13;;;;;;;;;;;;;;;11.92;100.00;99779.69;5060420;28;19920;-44
2022/10/12 02:33:45;;;;;;;;;;;;;;;11.81;100.00;99781.63;5062271;28;20312;-44
2022/10/12 02:36:12;;;;;;;;;;;;;;;11.73;100.00;99782.69;5043979;28;19925;-44
2022/10/12 02:38:38;;;;;;;;;;;;;;;11.61;100.00;99777.81;5043713;28;19920;-44
2022/10/12 02:41:04;;;;;;;;;;;;;;;11.72;100.00;99774.97;5043131;28;19917;-44
2022/10/12 02:43:37;;;;;;;;;;;;;;;11.59;100.00;99784.75;5062174;28;20008;-44
2022/10/12 02:46:02;;;;;;;;;;;;;;;11.70;100.00;99769.88;5043547;28;19920;-44
2022/10/12 02:48:28;;;;;;;;;;;;;;;11.66;100.00;99769.97;5042127;28;19928;-44
2022/10/12 02:50:54;;;;;;;;;;;;;;;11.66;100.00;99769.97;5043497;28;19916;-44
2022/10/12 02:53:19;;;;;;;;;;;;;;;11.68;100.00;99768.22;5043972;28;19916;-44
2022/10/12 02:55:46;;;;;;;;;;;;;;;11.70;100.00;99759.53;5042967;28;19960;-43
2022/10/12 02:58:11;;;;;;;;;;;;;;;11.75;100.00;99766.34;5043016;28;19927;-44
2022/10/12 03:00:37;;;;;;;;;;;;;;;11.59;100.00;99765.84;5044031;28;19916;-44
2022/10/12 03:03:02;;;;;;;;;;;;;;;11.44;100.00;99772.19;5061411;28;19923;-43
2022/10/12 03:05:27;;;;;;;;;;;;;;;11.58;100.00;99762.41;5043807;28;19974;-44
2022/10/12 03:07:52;;;;;;;;;;;;;;;11.59;100.00;99753.78;5043048;28;19913;-44
2022/10/12 03:10:18;;;;;;;;;;;;;;;11.58;100.00;99757.25;5060177;28;19920;-44
2022/10/12 03:12:43;;;;;;;;;;;;;;;11.57;100.00;99760.72;5061173;28;19946;-44
2022/10/12 03:15:08;;;;;;;;;;;;;;;11.65;100.00;99757.94;5061644;28;19925;-44
2022/10/12 03:17:34;;;;;;;;;;;;;;;11.48;100.00;99759.19;5060305;28;20628;-44
2022/10/12 03:19:59;;;;;;;;;;;;;;;11.69;100.00;99759.56;5059706;28;20015;-44
2022/10/12 03:22:24;;;;;;;;;;;;;;;11.54;100.00;99755.66;5028570;28;19951;-44
2022/10/12 03:24:49;;;;;;;;;;;;;;;11.62;100.00;99753.72;5061202;28;19927;-44
2022/10/12 03:27:15;;;;;;;;;;;;;;;11.61;100.00;99752.03;5061424;28;19924;-44
2022/10/12 03:29:40;;;;;;;;;;;;;;;11.45;100.00;99761.03;5058293;28;19966;-44
2022/10/12 03:32:05;;;;;;;;;;;;;;;11.51;100.00;99750.53;5059581;28;19931;-44
2022/10/12 03:34:30;;;;;;;;;;;;;;;11.59;100.00;99745.22;5059422;28;20008;-44
2022/10/12 03:36:55;;;;;;;;;;;;;;;11.50;100.00;99743.69;5060325;28;19913;-44
2022/10/12 03:39:21;;;;;;;;;;;;;;;11.47;100.00;99748.91;5059371;28;19916;-44
2022/10/12 03:41:46;;;;;;;;;;;;;;;11.08;100.00;99747.22;5060607;28;19932;-43
2022/10/12 03:44:11;;;;;;;;;;;;;;;11.16;100.00;99744.47;5060489;28;19966;-43
2022/10/12 03:46:36;;;;;;;;;;;;;;;11.42;100.00;99737.84;5059696;28;21021;-44
2022/10/12 03:49:02;;;;;;;;;;;;;;;11.23;100.00;99738.28;5059253;28;19965;-44
2022/10/12 03:51:27;;;;;;;;;;;;;;;11.37;100.00;99747.44;5060440;28;19920;-43
2022/10/12 03:53:52;;;;;;;;;;;;;;;11.66;100.00;99739.84;5060562;28;19927;-44
2022/10/12 03:56:17;;;;;;;;;;;;;;;11.57;100.00;99740.09;5060177;28;19988;-43
2022/10/12 03:58:42;;;;;;;;;;;;;;;11.42;100.00;99745.59;5060083;28;19917;-43
2022/10/12 04:01:08;;;;;;;;;;;;;;;11.43;100.00;99737.00;5059616;28;19958;-43
2022/10/12 04:03:33;;;;;;;;;;;;;;;10.91;100.00;99748.47;5060110;28;19920;-44
2022/10/12 04:05:58;;;;;;;;;;;;;;;11.42;100.00;99741.28;5059851;28;20027;-44
2022/10/12 04:08:25;;;;;;;;;;;;;;;11.46;100.00;99731.75;5060220;28;20485;-44
2022/10/12 04:10:50;;;;;;;;;;;;;;;11.33;100.00;99736.34;5060117;28;19926;-44
2022/10/12 04:13:16;;;;;;;;;;;;;;;11.37;100.00;99731.97;5060281;28;19916;-44
2022/10/12 04:15:41;;;;;;;;;;;;;;;11.27;100.00;99727.03;5059424;28;19924;-44
2022/10/12 04:18:06;;;;;;;;;;;;;;;11.37;100.00;99725.06;5059824;28;19916;-44
2022/10/12 04:20:32;;;;;;;;;;;;;;;11.15;100.00;99729.03;5059216;28;19980;-44
2022/10/12 04:22:57;;;;;;;;;;;;;;;11.11;100.00;99730.84;5058920;28;19916;-44
2022/10/12 04:25:22;;;;;;;;;;;;;;;11.14;100.00;99725.63;5059455;28;19921;-44
2022/10/12 04:27:48;;;;;;;;;;;;;;;11.33;100.00;99720.88;5059853;28;20373;-44
2022/10/12 04:30:13;;;;;;;;;;;;;;;11.26;100.00;99720.16;5058130;28;19920;-44
2022/10/12 04:32:38;;;;;;;;;;;;;;;11.17;100.00;99715.22;5059622;28;19927;-44
2022/10/12 04:35:03;;;;;;;;;;;;;;;11.13;100.00;99720.47;5059319;28;19924;-43
2022/10/12 04:37:29;;;;;;;;;;;;;;;11.36;100.00;99719.94;5058995;28;20446;-44
2022/10/12 04:39:54;;;;;;;;;;;;;;;11.36;100.00;99714.78;5058977;28;20013;-43
2022/10/12 04:42:19;;;;;;;;;;;;;;;11.20;100.00;99710.00;5059568;28;20300;-44
2022/10/12 04:44:45;;;;;;;;;;;;;;;10.96;100.00;99719.13;5059638;28;19924;-44
2022/10/12 04:47:10;;;;;;;;;;;;;;;11.11;100.00;99705.06;5058385;28;19920;-43
2022/10/12 04:49:35;;;;;;;;;;;;;;;11.07;100.00;99706.00;5059140;28;20381;-44
2022/10/12 04:52:00;;;;;;;;;;;;;;;10.92;100.00;99711.50;5059959;28;19920;-43
2022/10/12 04:54:26;;;;;;;;;;;;;;;10.68;100.00;99717.16;5059602;28;19974;-44
2022/10/12 04:56:51;;;;;;;;;;;;;;;10.55;100.00;99720.84;5027220;28;19927;-43
2022/10/12 04:59:16;;;;;;;;;;;;;;;10.55;100.00;99725.16;5058768;28;19920;-44
2022/10/12 05:01:41;;;;;;;;;;;;;;;10.92;100.00;99714.09;5059062;28;19936;-45
2022/10/12 05:04:07;;;;;;;;;;;;;;;11.01;100.00;99713.88;5059750;28;20288;-44
2022/10/12 05:06:32;;;;;;;;;;;;;;;10.87;100.00;99709.88;5059958;28;20654;-44
2022/10/12 05:08:57;;;;;;;;;;;;;;;10.80;100.00;99710.88;5058808;28;19920;-44
2022/10/12 05:11:23;;;;;;;;;;;;;;;10.87;100.00;99704.72;5059721;28;19921;-44
2022/10/12 05:13:48;;;;;;;;;;;;;;;11.07;100.00;99703.44;5063658;28;20829;-44
2022/10/12 05:16:13;;;;;;;;;;;;;;;11.15;100.00;99701.50;5063067;28;19925;-43
2022/10/12 05:18:38;;;;;;;;;;;;;;;11.19;100.00;99692.84;5063354;28;19974;-44
2022/10/12 05:21:04;;;;;;;;;;;;;;;11.18;100.00;99701.47;5063693;28;19916;-44
2022/10/12 05:23:29;;;;;;;;;;;;;;;11.19;100.00;99698.00;5062600;28;19927;-44
2022/10/12 05:25:55;;;;;;;;;;;;;;;11.16;100.00;99692.06;5062908;28;19924;-44
2022/10/12 05:28:20;;;;;;;;;;;;;;;11.17;100.00;99689.44;5062182;28;19943;-44
2022/10/12 05:30:48;;;;;;;;;;;;;;;11.19;100.00;99700.56;5062710;28;20393;-44
2022/10/12 05:33:13;;;;;;;;;;;;;;;11.22;100.00;99694.47;5063178;28;19975;-44
2022/10/12 05:35:38;;;;;;;;;;;;;;;11.02;100.00;99697.53;5062975;28;20444;-44
2022/10/12 05:38:03;;;;;;;;;;;;;;;11.08;100.00;99695.69;5063247;28;20503;-44
2022/10/12 05:40:28;;;;;;;;;;;;;;;10.89;100.00;99697.81;5062313;28;19927;-44
2022/10/12 05:42:54;;;;;;;;;;;;;;;10.92;100.00;99691.72;5063057;28;19920;-43
2022/10/12 05:45:19;;;;;;;;;;;;;;;11.04;100.00;99698.38;5062335;28;19920;-44
2022/10/12 05:47:44;;;;;;;;;;;;;;;11.15;100.00;99691.19;5058851;28;19924;-44
2022/10/12 05:50:11;;;;;;;;;;;;;;;11.13;100.00;99698.16;5056928;28;21861;-44
2022/10/12 05:52:36;;;;;;;;;;;;;;;11.04;100.00;99688.06;5062025;28;19928;-44
2022/10/12 05:55:02;;;;;;;;;;;;;;;11.07;100.00;99698.28;5061302;28;20551;-44
2022/10/12 05:57:27;;;;;;;;;;;;;;;10.69;100.00;99699.97;5060846;28;20058;-44
2022/10/12 05:59:52;;;;;;;;;;;;;;;10.80;100.00;99704.91;5058451;28;20560;-44
2022/10/12 06:02:17;;;;;;;;;;;;;;;10.92;100.00;99706.34;5062213;28;20011;-44
2022/10/12 06:04:43;;;;;;;;;;;;;;;10.40;100.00;99711.72;5061875;28;19925;-44
2022/10/12 06:07:08;;;;;;;;;;;;;;;10.49;100.00;99704.69;5062611;28;19912;-44
2022/10/12 06:09:34;;;;;;;;;;;;;;;10.86;100.00;99715.91;5043217;28;20385;-43
2022/10/12 06:11:59;;;;;;;;;;;;;;;10.64;100.00;99712.94;5060636;28;19928;-44
2022/10/12 06:14:24;;;;;;;;;;;;;;;10.66;100.00;99712.91;5061376;28;19921;-44
2022/10/12 06:16:49;;;;;;;;;;;;;;;10.64;100.00;99714.69;5062898;28;19922;-43
2022/10/12 06:19:15;;;;;;;;;;;;;;;10.45;100.00;99709.91;5061704;28;19999;-44
2022/10/12 06:21:40;;;;;;;;;;;;;;;10.93;100.00;99715.78;5029998;28;20469;-43
2022/10/12 06:24:05;;;;;;;;;;;;;;;10.64;100.00;99724.97;5061141;28;21000;-44
2022/10/12 06:26:30;;;;;;;;;;;;;;;10.58;100.00;99714.78;5061802;28;19916;-44
2022/10/12 06:28:56;;;;;;;;;;;;;;;11.12;100.00;99709.31;5059543;28;19924;-44
2022/10/12 06:31:21;;;;;;;;;;;;;;;11.71;100.00;99707.03;5060198;28;19987;-44
2022/10/12 06:33:46;;;;;;;;;;;;;;;11.66;100.00;99697.75;5061857;28;19924;-44
2022/10/12 06:36:11;;;;;;;;;;;;;;;11.46;100.00;99703.38;5062111;28;20011;-43
2022/10/12 06:38:37;;;;;;;;;;;;;;;11.14;100.00;99711.88;5061234;28;20479;-44
2022/10/12 06:41:02;;;;;;;;;;;;;;;11.29;100.00;99712.38;5060944;28;20742;-44
2022/10/12 06:43:27;;;;;;;;;;;;;;;11.24;100.00;99716.78;5061781;28;20273;-44
2022/10/12 06:45:52;;;;;;;;;;;;;;;11.17;100.00;99712.63;5061865;28;20005;-44
2022/10/12 06:48:18;;;;;;;;;;;;;;;11.50;100.00;99712.75;5060849;28;19981;-43
2022/10/12 06:50:43;;;;;;;;;;;;;;;11.73;100.00;99715.59;5060688;28;19920;-44
2022/10/12 06:53:08;;;;;;;;;;;;;;;11.54;100.00;99714.38;5060832;28;19920;-44
2022/10/12 06:55:33;;;;;;;;;;;;;;;12.10;100.00;99714.66;5060415;28;20523;-44
2022/10/12 06:57:59;;;;;;;;;;;;;;;11.84;100.00;99717.06;5060924;28;19916;-44
2022/10/12 07:00:24;;;;;;;;;;;;;;;11.61;100.00;99715.91;5059790;28;19922;-44
2022/10/12 07:02:49;;;;;;;;;;;;;;;11.61;100.00;99720.19;5061789;28;20489;-44
2022/10/12 07:05:15;;;;;;;;;;;;;;;11.73;100.00;99725.91;5061578;28;19916;-44
2022/10/12 07:07:40;;;;;;;;;;;;;;;11.69;100.00;99720.88;5062015;28;19938;-44
2022/10/12 07:10:06;;;;;;;;;;;;;;;11.87;100.00;99723.00;5060978;28;19920;-44
2022/10/12 07:12:31;;;;;;;;;;;;;;;11.83;100.00;99723.94;5060759;28;19951;-44
2022/10/12 07:14:57;;;;;;;;;;;;;;;12.07;100.00;99722.50;5060874;28;20043;-44
2022/10/12 07:17:23;;;;;;;;;;;;;;;12.30;100.00;99721.03;5061454;28;20034;-44
2022/10/12 07:19:48;;;;;;;;;;;;;;;12.52;100.00;99711.81;5060881;28;19922;-44
2022/10/12 07:22:13;;;;;;;;;;;;;;;12.35;100.00;99712.25;5059944;28;19920;-43
2022/10/12 07:24:38;;;;;;;;;;;;;;;12.85;100.00;99714.28;5061347;28;19916;-43
2022/10/12 07:27:04;;;;;;;;;;;;;;;12.91;100.00;99706.34;5060374;28;19962;-44
2022/10/12 07:29:30;;;;;;;;;;;;;;;12.77;100.00;99711.06;5058411;28;19930;-44
2022/10/12 07:31:56;;;;;;;;;;;;;;;12.76;100.00;99717.13;5060411;28;20054;-44
2022/10/12 07:34:21;;;;;;;;;;;;;;;13.05;100.00;99705.09;5060086;28;20498;-44
2022/10/12 07:36:47;;;;;;;;;;;;;;;13.31;100.00;99706.88;5060962;28;19928;-44
2022/10/12 07:39:12;;;;;;;;;;;;;;;12.46;100.00;99711.97;5060075;28;19977;-44
2022/10/12 07:41:37;;;;;;;;;;;;;;;12.77;100.00;99721.41;5060203;28;20354;-44
2022/10/12 07:44:02;;;;;;;;;;;;;;;13.33;100.00;99700.75;5059723;28;20350;-44
2022/10/12 07:46:28;;;;;;;;;;;;;;;13.33;100.00;99705.09;5060622;28;20284;-44
2022/10/12 07:48:53;;;;;;;;;;;;;;;13.24;100.00;99708.78;5059639;28;19934;-44
2022/10/12 07:51:18;;;;;;;;;;;;;;;13.59;100.00;99697.34;5060545;28;19924;-44
2022/10/12 07:53:43;;;;;;;;;;;;;;;13.70;100.00;99699.53;5060202;28;19920;-45
2022/10/12 07:56:13;;;;;;;;;;;;;;;14.26;100.00;99687.28;5060351;28;19975;-45
2022/10/12 07:58:39;;;;;;;;;;;;;;;14.32;100.00;99685.31;5041082;28;19928;-44
2022/10/12 08:01:05;;;;;;;;;;;;;;;14.43;100.00;99690.09;5056338;28;20375;-45
2022/10/12 08:03:30;;;;;;;;;;;;;;;14.41;100.00;99682.38;5041917;28;20687;-44
2022/10/12 08:05:55;;;;;;;;;;;;;;;14.58;100.00;99684.38;5059908;28;19924;-45
2022/10/12 08:08:20;;;;;;;;;;;;;;;14.78;100.00;99690.53;5059541;28;19912;-45
2022/10/12 08:10:46;;;;;;;;;;;;;;;15.26;100.00;99692.13;5060296;28;19928;-45
2022/10/12 08:13:11;;;;;;;;;;;;;;;14.80;100.00;99689.59;5059786;28;19916;-45
2022/10/12 08:15:36;;;;;;;;;;;;;;;15.08;100.00;99692.88;5059645;28;21062;-45
2022/10/12 08:18:01;;;;;;;;;;;;;;;15.29;100.00;99689.41;5059923;28;20352;-44
2022/10/12 08:20:27;;;;;;;;;;;;;;;15.86;100.00;99679.28;5059516;28;19921;-45
2022/10/12 08:22:52;;;;;;;;;;;;;;;15.59;100.00;99683.88;5059549;28;19922;-45
2022/10/12 08:25:18;;;;;;;;;;;;;;;15.78;100.00;99690.03;5059506;28;19920;-45
2022/10/12 08:27:43;;;;;;;;;;;;;;;15.64;100.00;99692.31;5059437;28;19920;-45
2022/10/12 08:30:08;;;;;;;;;;;;;;;16.07;100.00;99691.34;5040242;28;20023;-45
2022/10/12 08:32:33;;;;;;;;;;;;;;;16.23;100.00;99680.28;5060162;28;20351;-46
2022/10/12 08:34:59;;;;;;;;;;;;;;;16.24;100.00;99679.41;5059372;28;20049;-46
2022/10/12 08:37:24;;;;;;;;;;;;;;;16.37;100.00;99679.66;5059893;28;20567;-46
2022/10/12 08:39:50;;;;;;;;;;;;;;;16.37;100.00;99677.91;5058841;28;20273;-46
2022/10/12 08:42:35;;;;;;;;;;;;;;;16.70;100.00;99688.53;5059976;28;19923;-46
2022/10/12 08:45:01;;;;;;;;;;;;;;;16.71;100.00;99677.19;5027270;28;19920;-46
2022/10/12 08:47:38;;;;;;;;;;;;;;;16.88;100.00;99667.81;5059054;28;19924;-46
2022/10/12 08:50:04;;;;;;;;;;;;;;;16.25;100.00;99686.25;5059210;28;19946;-46
2022/10/12 08:52:30;;;;;;;;;;;;;;;16.53;100.00;99672.84;5041622;28;19921;-47
2022/10/12 08:54:59;;;;;;;;;;;;;;;16.37;100.00;99671.88;5041142;28;20348;-47
2022/10/12 08:57:24;;;;;;;;;;;;;;;16.03;100.00;99681.16;5041121;28;19928;-46
2022/10/12 08:59:49;;;;;;;;;;;;;;;16.01;100.00;99688.16;5058137;28;19969;-46
2022/10/12 09:02:18;;;;;;;;;;;;;;;16.89;100.00;99670.34;5041700;28;20015;-46
2022/10/12 09:04:43;;;;;;;;;;;;;;;17.22;100.00;99666.19;5059386;28;19920;-46
2022/10/12 09:07:11;;;;;;;;;;;;;;;18.09;100.00;99663.59;5059262;28;19920;-47
2022/10/12 09:09:39;;;;;;;;;;;;;;;17.18;100.00;99669.88;5040752;28;19921;-45
2022/10/12 09:12:07;;;;;;;;;;;;;;;18.14;100.00;99656.38;5059009;28;19928;-47
2022/10/12 09:14:34;;;;;;;;;;;;;;;17.91;100.00;99653.19;5059188;28;19946;-46
2022/10/12 09:16:59;;;;;;;;;;;;;;;18.39;100.00;99646.28;5058864;28;20560;-46
2022/10/12 09:19:30;;;;;;;;;;;;;;;18.09;100.00;99648.78;5039805;28;19921;-46
2022/10/12 09:21:55;;;;;;;;;;;;;;;17.91;100.00;99655.78;5040871;28;19913;-46
2022/10/12 09:24:22;;;;;;;;;;;;;;;18.69;100.00;99655.16;5058188;28;20019;-47
2022/10/12 09:26:49;;;;;;;;;;;;;;;18.76;100.00;99648.66;5039798;28;19920;-46
2022/10/12 09:29:22;;;;;;;;;;;;;;;19.01;100.00;99648.16;5057796;28;19970;-46
2022/10/12 09:32:06;;;;;;;;;;;;;;;18.95;99.79;99648.50;5040285;28;20489;-46
2022/10/12 09:34:32;;;;;;;;;;;;;;;18.63;98.75;99647.66;5057700;28;20035;-46
2022/10/12 09:36:57;;;;;;;;;;;;;;;19.07;99.94;99650.44;5058690;28;20439;-46
2022/10/12 09:39:33;;;;;;;;;;;;;;;19.16;98.03;99643.84;5058590;28;19913;-45
2022/10/12 09:41:58;;;;;;;;;;;;;;;18.92;98.77;99643.47;5039922;28;19925;-46
2022/10/12 09:44:26;;;;;;;;;;;;;;;19.76;97.66;99643.00;5057750;28;19973;-45
2022/10/12 09:46:55;;;;;;;;;;;;;;;20.09;98.01;99641.88;5057726;28;19963;-46
2022/10/12 09:49:21;;;;;;;;;;;;;;;19.96;95.42;99631.34;5057091;28;19921;-46
2022/10/12 09:51:46;;;;;;;;;;;;;;;19.78;96.14;99638.53;5057323;28;19924;-46
2022/10/12 09:54:18;;;;;;;;;;;;;;;19.93;97.68;99648.03;5039400;28;19921;-46
2022/10/12 09:56:51;;;;;;;;;;;;;;;19.75;96.25;99638.69;5038165;28;19920;-45
2022/10/12 09:59:27;;;;;;;;;;;;;;;20.00;97.46;99640.66;5059308;28;19927;-45
2022/10/12 10:01:56;;;;;;;;;;;;;;;20.59;95.73;99635.31;5061192;28;19916;-46
2022/10/12 10:04:25;;;;;;;;;;;;;;;20.72;93.44;99625.75;5059329;28;19920;-47
2022/10/12 10:06:50;;;;;;;;;;;;;;;21.18;93.65;99625.38;5061083;28;19999;-46
2022/10/12 10:09:32;;;;;;;;;;;;;;;20.73;93.25;99622.19;5042946;28;20031;-47
2022/10/12 10:12:10;;;;;;;;;;;;;;;20.62;93.44;99622.88;5061382;28;19928;-47
2022/10/12 10:14:35;;;;;;;;;;;;;;;20.15;94.21;99616.19;5043609;28;20964;-48
2022/10/12 10:17:00;;;;;;;;;;;;;;;20.66;95.65;99613.91;5062282;28;20027;-46
2022/10/12 10:19:25;;;;;;;;;;;;;;;20.14;93.52;99611.91;5044188;28;20383;-46
2022/10/12 10:21:51;;;;;;;;;;;;;;;20.24;97.59;99625.25;5061555;28;20272;-46
2022/10/12 10:24:22;;;;;;;;;;;;;;;20.59;94.63;99614.38;5043325;28;19951;-47
2022/10/12 10:26:54;;;;;;;;;;;;;;;20.96;94.93;99618.09;5062511;28;20027;-48
2022/10/12 10:29:21;;;;;;;;;;;;;;;21.05;93.88;99621.88;5060930;28;19957;-47
2022/10/12 10:31:47;;;;;;;;;;;;;;;21.17;93.11;99609.78;5061470;28;19924;-47
2022/10/12 10:34:12;;;;;;;;;;;;;;;21.30;92.28;99613.22;5062105;28;20419;-47
2022/10/12 10:36:45;;;;;;;;;;;;;;;21.06;92.16;99607.84;5062260;28;20395;-48
2022/10/12 10:39:15;;;;;;;;;;;;;;;21.30;93.23;99611.47;5042090;28;19947;-47
2022/10/12 10:41:41;;;;;;;;;;;;;;;21.87;92.48;99612.91;5044163;28;19920;-47
2022/10/12 10:44:25;;;;;;;;;;;;;;;21.74;91.81;99619.09;5044344;28;20282;-46
2022/10/12 10:46:51;;;;;;;;;;;;;;;20.79;94.53;99620.97;5062106;28;19972;-47
2022/10/12 10:49:23;;;;;;;;;;;;;;;20.55;94.63;99618.09;5061660;28;19947;-46
2022/10/12 10:51:52;;;;;;;;;;;;;;;21.55;93.86;99617.69;5043881;28;19912;-46
2022/10/12 10:54:24;;;;;;;;;;;;;;;21.64;92.25;99622.31;5042483;28;19927;-47
2022/10/12 10:56:50;;;;;;;;;;;;;;;20.85;95.34;99637.13;5043570;28;19928;-46
2022/10/12 10:59:35;;;;;;;;;;;;;;;21.34;94.21;99626.97;5061041;28;19917;-46
2022/10/12 11:02:01;;;;;;;;;;;;;;;21.36;93.44;99622.47;5060872;28;20456;-47
2022/10/12 11:04:47;;;;;;;;;;;;;;;21.49;93.46;99618.13;5042945;28;19994;-49
2022/10/12 11:07:24;;;;;;;;;;;;;;;20.97;96.19;99629.41;5058580;28;19974;-47
2022/10/12 11:09:51;;;;;;;;;;;;;;;22.16;92.75;99615.25;5059182;28;19920;-48
2022/10/12 11:12:18;;;;;;;;;;;;;;;21.90;93.30;99617.09;5060413;28;19916;-46
2022/10/12 11:14:44;;;;;;;;;;;;;;;22.59;90.86;99608.78;5061303;28;20373;-47
2022/10/12 11:17:16;;;;;;;;;;;;;;;22.42;90.09;99605.59;5060754;28;20368;-47
2022/10/12 11:19:52;;;;;;;;;;;;;;;22.44;90.62;99611.56;5059868;28;19963;-46
2022/10/12 11:22:22;;;;;;;;;;;;;;;23.09;89.83;99609.53;5061218;28;20419;-47
2022/10/12 11:25:02;;;;;;;;;;;;;;;22.20;90.09;99601.00;5043214;28;19969;-47
2022/10/12 11:27:31;;;;;;;;;;;;;;;22.24;91.02;99604.28;5043392;28;19920;-48
2022/10/12 11:30:00;;;;;;;;;;;;;;;22.97;88.35;99598.94;5041530;28;19956;-49
2022/10/12 11:32:28;;;;;;;;;;;;;;;22.93;88.53;99594.03;5060580;28;19921;-47
2022/10/12 11:35:03;;;;;;;;;;;;;;;22.74;92.25;99599.81;5060416;28;19925;-48
2022/10/12 11:37:34;;;;;;;;;;;;;;;22.68;89.64;99582.69;5043224;28;19923;-48
2022/10/12 11:40:00;;;;;;;;;;;;;;;23.24;89.15;99581.25;5060133;28;19978;-48
2022/10/12 11:42:30;;;;;;;;;;;;;;;22.92;87.59;99582.69;5042507;28;20384;-47
2022/10/12 11:44:55;;;;;;;;;;;;;;;22.51;86.13;99568.19;5042777;28;19920;-48
2022/10/12 11:47:37;;;;;;;;;;;;;;;21.52;85.75;99573.38;5060905;28;20477;-47
2022/10/12 11:50:04;;;;;;;;;;;;;;;23.03;88.76;99581.06;5058617;28;19930;-47
2022/10/12 11:52:35;;;;;;;;;;;;;;;23.39;85.59;99562.53;5040964;28;20377;-55
2022/10/12 11:55:03;;;;;;;;;;;;;;;23.17;87.05;99575.63;5041391;28;20703;-47
2022/10/12 11:57:29;;;;;;;;;;;;;;;23.73;84.67;99567.81;5059903;28;19928;-47
2022/10/12 11:59:57;;;;;;;;;;;;;;;23.27;82.16;99560.84;5060104;28;19924;-47
2022/10/12 12:02:34;;;;;;;;;;;;;;;21.99;88.99;99579.75;5059193;28;19916;-47
2022/10/12 12:05:00;;;;;;;;;;;;;;;23.39;87.56;99565.16;5042313;28;19974;-48
2022/10/12 12:07:44;;;;;;;;;;;;;;;22.49;86.50;99577.13;5042408;28;19920;-47
2022/10/12 12:10:33;;;;;;;;;;;;;;;22.38;90.28;99580.50;5057532;28;19917;-47
2022/10/12 12:13:13;;;;;;;;;;;;;;;23.70;87.55;99562.00;5058850;28;19932;-48
2022/10/12 12:15:39;;;;;;;;;;;;;;;22.83;86.62;99562.38;5059085;28;20331;-47
2022/10/12 12:18:16;;;;;;;;;;;;;;;22.76;88.45;99561.13;5041613;28;19928;-47
2022/10/12 12:20:41;;;;;;;;;;;;;;;22.75;87.99;99557.66;5058141;28;19920;-46
2022/10/12 12:23:15;;;;;;;;;;;;;;;23.64;88.17;99550.13;5058314;28;20385;-47
2022/10/12 12:25:40;;;;;;;;;;;;;;;23.93;88.01;99547.06;5041093;28;19973;-46
2022/10/12 12:28:15;;;;;;;;;;;;;;;24.27;86.94;99541.72;5041044;28;19924;-46
2022/10/12 12:30:40;;;;;;;;;;;;;;;23.87;87.30;99543.09;5040702;28;19927;-47
2022/10/12 12:33:21;;;;;;;;;;;;;;;24.43;84.95;99534.28;5058674;28;20191;-47
2022/10/12 12:35:51;;;;;;;;;;;;;;;23.75;86.28;99534.38;5024696;28;19967;-50
2022/10/12 12:38:18;;;;;;;;;;;;;;;24.03;86.41;99537.47;5035952;28;20076;-47